Terminal Aerodrome Forecast
Issued by NWS Mt. Holly, NJ

Home | Current Version | Previous Version | Text Only | Print | Product List | Glossary On
Versions: 1 2 3 4 5 6 7 8 9 10 11 12 13 14 15 16 17 18 19 20 21 22 23 24 25 26 27 28 29
000
FTUS41 KPHI 240520
TAFPHL
TAF
KPHL 240520Z 2406/2512 22014KT P6SM VCSH SCT040 BKN080
      WS020/23045KT
      TEMPO 2407/2408 4SM SHRA BKN025
     FM240800 22008KT 2SM SHRA BKN025
     FM241000 24006KT 4SM -SHRA OVC020
     FM241200 33015KT P6SM SCT020 OVC040
     FM241500 30014G24KT P6SM SCT030
     FM241900 28013G23KT P6SM SKC
     FM250000 25010KT P6SM SKC=

USA.gov is the U.S. government's official web portal to all federal, state and local government web resources and services.